Time;durP1;ratioP1;P1;durP2;ratioP2;P2;SDS_P1;SDS_P2;PMS_P1;PMS_P2;Temp;Humidity;BMP_temperature;BMP_pressure;BME280_temperature;BME280_humidity;BME280_pressure;Samples;Min_cycle;Max_cycle;Signal;HPM_P1;HPM_P2
2023/06/20 00:38:48;;;;;;;21.73;18.83;;;15.70;99.90;;;;;;4619979;30;20483;-84
2023/06/20 01:14:30;;;;;;;21.83;19.57;;;15.50;99.90;;;;;;4610367;30;20271;-81
2023/06/20 01:40:02;;;;;;;20.30;17.93;;;15.50;99.90;;;;;;4679335;29;20387;-79
2023/06/20 02:05:18;;;;;;;22.30;19.90;;;15.30;99.90;;;;;;4750155;29;20315;-83
2023/06/20 02:40:27;;;;;;;25.57;21.30;;;14.90;99.90;;;;;;4650290;29;20695;-82
2023/06/20 03:06:06;;;;;;;24.63;22.00;;;15.00;99.90;;;;;;4691265;29;20763;-79
2023/06/20 03:36:24;;;;;;;26.57;23.77;;;15.70;99.90;;;;;;4776021;29;20290;-81
2023/06/20 03:56:59;;;;;;;28.73;24.23;;;16.50;99.90;;;;;;4820168;28;20197;-82
2023/06/20 04:17:15;;;;;;;26.80;23.70;;;17.60;99.90;;;;;;4845917;28;20706;-82
2023/06/20 04:41:53;;;;;;;25.80;22.67;;;19.20;99.90;;;;;;4932883;28;20530;-86
2023/06/20 05:02:12;;;;;;;23.90;21.47;;;20.20;99.90;;;;;;4686341;29;20821;-84
2023/06/20 05:23:08;;;;;;;22.38;20.17;;;21.40;99.90;;;;;;4707228;29;20356;-84
2023/06/20 05:53:26;;;;;;;20.38;18.17;;;23.40;91.80;;;;;;4799546;29;22091;-85
2023/06/20 06:13:43;;;;;;;23.80;17.75;;;23.30;92.30;;;;;;4724139;29;20781;-85
2023/06/20 06:38:55;;;;;;;19.85;17.88;;;24.40;91.20;;;;;;4715713;29;20341;-83
2023/06/20 06:54:29;;;;;;;18.33;16.48;;;26.30;83.60;;;;;;4618887;30;20217;-83
2023/06/20 07:19:46;;;;;;;11.80;10.70;;;27.30;65.70;;;;;;4679061;29;20256;-82
2023/06/20 07:44:49;;;;;;;10.57;9.65;;;27.30;61.60;;;;;;4646611;29;21180;-82
2023/06/20 08:10:17;;;;;;;10.40;9.48;;;27.50;62.20;;;;;;4598034;30;20630;-81
2023/06/20 08:30:33;;;;;;;10.82;9.13;;;28.20;58.70;;;;;;4692986;29;20298;-82
2023/06/20 08:56:04;;;;;;;9.52;8.55;;;29.00;54.10;;;;;;4623419;30;20371;-83
2023/06/20 09:41:54;;;;;;;10.82;8.23;;;28.50;51.90;;;;;;4641855;29;20203;-81
2023/06/20 09:46:14;;;;;;;8.55;7.82;;;28.70;51.60;;;;;;4583476;30;21203;-79
2023/06/20 10:12:09;;;;;;;8.82;8.15;;;28.50;51.40;;;;;;4674510;30;20216;-85
2023/06/20 10:37:44;;;;;;;8.70;7.97;;;28.60;51.30;;;;;;4702660;29;20344;-85
2023/06/20 11:18:16;;;;;;;8.07;7.35;;;29.20;49.70;;;;;;4857379;28;20216;-85
2023/06/20 11:43:35;;;;;;;8.38;7.70;;;28.20;51.70;;;;;;5423955;22;21309;-85
2023/06/20 12:08:22;;;;;;;7.80;7.20;;;28.60;51.70;;;;;;4761737;29;20531;-90
2023/06/20 12:33:48;;;;;;;8.77;8.07;;;29.10;52.50;;;;;;4687189;30;20223;-88
2023/06/20 12:49:30;;;;;;;8.32;7.63;;;29.50;50.60;;;;;;4675559;30;20242;-85
2023/06/20 13:40:22;;;;;;;8.50;7.70;;;31.40;48.60;;;;;;4787474;29;20220;-85
2023/06/20 13:44:43;;;;;;;8.48;7.78;;;31.90;49.20;;;;;;4760419;29;20627;-85
2023/06/20 14:05:42;;;;;;;8.25;7.65;;;32.60;48.10;;;;;;4701488;30;20265;-84
2023/06/20 14:10:01;;;;;;;8.43;7.63;;;32.40;47.70;;;;;;4623059;30;20486;-86
2023/06/20 14:41:02;;;;;;;8.27;7.68;;;30.70;47.00;;;;;;4742254;30;20243;-86
2023/06/20 15:06:18;;;;;;;8.80;8.10;;;32.30;47.20;;;;;;4769942;29;20385;-84
2023/06/20 15:26:47;;;;;;;8.27;7.47;;;35.20;47.50;;;;;;4732599;30;20759;-84
2023/06/20 15:57:11;;;;;;;9.05;8.15;;;35.00;45.90;;;;;;4782811;29;20287;-88
2023/06/20 16:22:26;;;;;;;9.88;9.02;;;30.40;47.00;;;;;;4760422;29;20217;-87
2023/06/20 16:42:32;;;;;;;9.55;8.70;;;29.80;48.40;;;;;;4780423;29;20281;-86
2023/06/20 17:08:15;;;;;;;9.85;8.95;;;28.30;49.60;;;;;;4873630;29;20286;-85
2023/06/20 17:58:18;;;;;;;11.98;10.63;;;26.00;66.90;;;;;;4857987;29;20221;-86
2023/06/20 18:19:02;;;;;;;13.75;12.48;;;25.00;83.30;;;;;;4664163;30;20266;-85
2023/06/20 19:09:47;;;;;;;16.13;14.52;;;23.10;91.10;;;;;;4647727;30;20223;-84
2023/06/20 19:35:21;;;;;;;16.27;14.77;;;22.10;95.00;;;;;;4666447;30;20769;-85
2023/06/20 20:05:29;;;;;;;19.10;17.20;;;21.20;97.50;;;;;;4575610;30;20267;-83
2023/06/20 20:30:54;;;;;;;20.20;18.10;;;20.50;99.90;;;;;;4610948;30;20282;-83
2023/06/20 21:01:29;;;;;;;22.30;19.87;;;20.00;99.90;;;;;;4655486;29;20661;-82
2023/06/20 21:26:49;;;;;;;26.60;23.10;;;19.50;99.90;;;;;;4782763;29;20215;-82
2023/06/20 22:02:31;;;;;;;27.97;24.97;;;18.70;99.90;;;;;;4759201;29;20294;-84
2023/06/20 22:06:51;;;;;;;28.63;25.70;;;18.70;99.90;;;;;;4716729;29;21150;-81
2023/06/20 22:27:33;;;;;;;29.00;26.03;;;18.40;99.90;;;;;;4737765;29;20259;-82
2023/06/20 22:48:02;;;;;;;30.13;27.03;;;18.10;99.90;;;;;;4607552;30;20541;-85
2023/06/20 23:08:25;;;;;;;29.33;26.20;;;17.90;99.90;;;;;;4538866;30;20270;-84
2023/06/20 23:33:20;;;;;;;30.37;27.17;;;17.60;99.90;;;;;;4673798;29;21165;-81
